Patrocinio, Brazil
Current Conditions -  °F | °C
As of 4:00 PM on Friday 19 Dec 2014 (Local Time) from SBUL Reporting Station
Rain Showers Rain Showers  
Wind Chill: 77°   Ceiling: Unl
Heat Index: 79°   Visibility: 6mi
Dew Point: 66°   Wind: 9mph
Humidity: 69%   Direction: 360°N
Pressure: 29.88"   Gusts: NA
Location:  18.93°S, 47°W
Report Text: SBUL 191800Z 36008KT 9999 VCSH FEW030 FEW035TCU SCT080 25/19 Q1012
Loading
Personal Weather Stations






























Interactive Weather Map New forecast layout! Learn more

10-Day Weather Forecast

Advertisements
Track Severe Weather on mobile